createdAt,value
2024-03-07T00:00:20.516Z,5.02
2024-03-07T00:02:53.101Z,5.00
2024-03-07T00:05:27.835Z,5.06
2024-03-07T00:08:01.083Z,5.08
2024-03-07T00:10:38.149Z,5.07
2024-03-07T00:13:14.332Z,5.08
2024-03-07T00:15:46.210Z,5.12
2024-03-07T00:18:18.292Z,5.09
2024-03-07T00:20:50.387Z,5.05
2024-03-07T00:23:25.249Z,4.98
2024-03-07T00:25:57.338Z,5.01
2024-03-07T00:28:33.589Z,5.02
2024-03-07T00:31:05.543Z,5.06
2024-03-07T00:33:52.984Z,5.03
2024-03-07T00:36:32.034Z,5.04
2024-03-07T00:39:04.613Z,5.04
2024-03-07T00:41:36.683Z,5.08
2024-03-07T00:44:10.755Z,5.13
2024-03-07T00:46:42.551Z,5.12
2024-03-07T00:49:14.574Z,5.16
2024-03-07T00:51:49.089Z,5.12
2024-03-07T00:54:23.444Z,5.13
2024-03-07T00:56:56.463Z,5.16
2024-03-07T00:59:31.128Z,5.21
2024-03-07T01:02:03.545Z,5.22
2024-03-07T01:04:35.420Z,5.24
2024-03-07T01:07:07.072Z,5.21
2024-03-07T01:09:38.902Z,5.27
2024-03-07T01:12:12.629Z,5.32
2024-03-07T01:14:44.597Z,5.38
2024-03-07T01:17:16.780Z,5.36
2024-03-07T01:19:48.914Z,5.31
2024-03-07T01:22:21.376Z,5.30
2024-03-07T01:24:53.148Z,5.24
2024-03-07T01:27:35.738Z,5.18
2024-03-07T01:30:10.949Z,5.12
2024-03-07T01:32:42.799Z,5.16
2024-03-07T01:35:14.846Z,5.13
2024-03-07T01:37:46.593Z,5.20
2024-03-07T01:40:22.092Z,5.21
2024-03-07T01:42:53.833Z,5.18
2024-03-07T01:45:25.525Z,5.19
2024-03-07T01:47:57.735Z,5.24
2024-03-07T01:50:30.044Z,5.32
2024-03-07T01:53:10.978Z,5.39
2024-03-07T01:55:43.114Z,5.35
2024-03-07T01:58:23.642Z,5.30
2024-03-07T02:00:55.673Z,5.34
2024-03-07T02:03:27.553Z,5.38
2024-03-07T02:05:59.908Z,5.33
2024-03-07T02:08:33.123Z,5.34
2024-03-07T02:11:05.203Z,5.30
2024-03-07T02:13:39.049Z,5.25
2024-03-07T02:16:10.927Z,5.25
2024-03-07T02:18:42.845Z,5.31
2024-03-07T02:21:14.823Z,5.34
2024-03-07T02:23:46.655Z,5.35
2024-03-07T02:26:19.849Z,5.34
2024-03-07T02:28:51.642Z,5.35
2024-03-07T02:31:36.401Z,5.44
2024-03-07T02:34:08.831Z,5.47
2024-03-07T02:36:40.587Z,5.44
2024-03-07T02:39:13.098Z,5.44
2024-03-07T02:41:44.869Z,5.40
2024-03-07T02:44:16.627Z,5.37
2024-03-07T02:46:51.086Z,5.41
2024-03-07T02:49:22.829Z,5.40
2024-03-07T02:51:57.757Z,5.43
2024-03-07T02:54:29.761Z,5.50
2024-03-07T02:57:02.431Z,5.48
2024-03-07T02:59:37.872Z,5.51
2024-03-07T03:02:12.547Z,5.49
2024-03-07T03:04:46.659Z,5.39
2024-03-07T03:07:18.939Z,5.38
2024-03-07T03:09:50.717Z,5.32
2024-03-07T03:12:23.801Z,5.34
2024-03-07T03:14:55.689Z,5.39
2024-03-07T03:17:28.652Z,5.41
2024-03-07T03:20:00.551Z,5.42
2024-03-07T03:22:35.044Z,5.41
2024-03-07T03:25:08.292Z,5.37
2024-03-07T03:27:41.383Z,5.41
2024-03-07T03:30:15.220Z,5.47
2024-03-07T03:32:48.573Z,5.49
2024-03-07T03:35:23.658Z,5.50
2024-03-07T03:37:58.076Z,5.50
2024-03-07T03:40:32.956Z,5.54
2024-03-07T03:43:04.777Z,5.54
2024-03-07T03:45:36.767Z,5.48
2024-03-07T03:48:08.849Z,5.46
2024-03-07T03:50:40.705Z,5.40
2024-03-07T03:53:13.022Z,5.43
2024-03-07T03:55:44.763Z,5.43
2024-03-07T03:58:17.999Z,5.46
2024-03-07T04:00:49.980Z,5.55
2024-03-07T04:03:22.104Z,5.60
2024-03-07T04:05:56.830Z,5.63
2024-03-07T04:08:28.983Z,5.57
2024-03-07T04:11:00.765Z,5.55
2024-03-07T04:13:34.884Z,5.57
2024-03-07T04:16:07.243Z,5.62
2024-03-07T04:18:39.931Z,5.66
2024-03-07T04:21:14.226Z,5.69
2024-03-07T04:23:55.198Z,5.71
2024-03-07T04:26:27.545Z,5.70
2024-03-07T04:28:59.367Z,5.63
2024-03-07T04:31:31.145Z,5.55
2024-03-07T04:34:02.820Z,5.62
2024-03-07T04:36:36.096Z,5.59
2024-03-07T04:39:23.589Z,5.65
2024-03-07T04:41:58.137Z,5.70
2024-03-07T04:44:31.308Z,5.66
2024-03-07T04:47:04.579Z,5.63
2024-03-07T04:49:36.645Z,5.62
2024-03-07T04:52:08.313Z,5.62
2024-03-07T04:54:43.330Z,5.57
2024-03-07T04:57:14.929Z,5.51
2024-03-07T04:59:46.672Z,5.50
2024-03-07T05:02:18.844Z,5.48
2024-03-07T05:04:51.795Z,5.52
2024-03-07T05:07:24.712Z,5.54
2024-03-07T05:09:56.890Z,5.55
2024-03-07T05:12:32.084Z,5.52
2024-03-07T05:15:05.419Z,5.46
2024-03-07T05:17:39.132Z,5.42
2024-03-07T05:20:12.052Z,5.33
2024-03-07T05:22:53.145Z,5.32
2024-03-07T05:25:25.058Z,5.31
2024-03-07T05:28:02.211Z,5.30
2024-03-07T05:30:34.506Z,5.32
2024-03-07T05:33:06.254Z,5.32
2024-03-07T05:35:38.446Z,5.22
2024-03-07T05:38:10.191Z,5.20
2024-03-07T05:40:45.404Z,5.23
2024-03-07T05:43:17.111Z,5.22
2024-03-07T05:45:49.288Z,5.25
2024-03-07T05:48:25.385Z,5.22
2024-03-07T05:50:57.760Z,5.16
2024-03-07T05:53:32.593Z,5.21
2024-03-07T05:56:05.697Z,5.18
2024-03-07T05:58:37.507Z,5.21
2024-03-07T06:01:12.743Z,5.25
2024-03-07T06:03:44.575Z,5.25
2024-03-07T06:06:22.273Z,5.26
2024-03-07T06:08:56.532Z,5.24
2024-03-07T06:11:31.760Z,5.25
2024-03-07T06:14:04.840Z,5.27
2024-03-07T06:16:39.885Z,5.30
2024-03-07T06:19:12.622Z,5.31
2024-03-07T06:21:44.629Z,5.22
2024-03-07T06:24:18.729Z,5.17
2024-03-07T06:27:01.271Z,5.18
2024-03-07T06:29:33.275Z,5.18
2024-03-07T06:32:11.753Z,5.18
2024-03-07T06:34:44.151Z,5.12
2024-03-07T06:37:15.964Z,5.10
2024-03-07T06:39:50.791Z,5.09
2024-03-07T06:42:25.863Z,5.07
2024-03-07T06:44:58.900Z,5.09
2024-03-07T06:47:32.779Z,5.11
2024-03-07T06:50:05.189Z,5.15
2024-03-07T06:52:37.785Z,5.26
2024-03-07T06:55:10.022Z,5.13
2024-03-07T06:57:42.288Z,5.09
2024-03-07T07:00:15.424Z,5.16
2024-03-07T07:02:51.893Z,5.25
2024-03-07T07:05:24.536Z,5.24
2024-03-07T07:07:56.521Z,5.31
2024-03-07T07:10:28.424Z,5.24
2024-03-07T07:13:00.636Z,5.25
2024-03-07T07:15:32.340Z,5.23
2024-03-07T07:18:09.291Z,5.21
2024-03-07T07:20:41.229Z,5.21
2024-03-07T07:23:15.454Z,5.23
2024-03-07T07:25:50.367Z,5.27
2024-03-07T07:28:22.835Z,5.26
2024-03-07T07:30:55.883Z,5.29
2024-03-07T07:33:29.252Z,5.22
2024-03-07T07:36:03.685Z,5.24
2024-03-07T07:38:35.662Z,5.33
2024-03-07T07:41:11.459Z,5.41
2024-03-07T07:43:44.178Z,5.36
2024-03-07T07:46:17.640Z,5.43
2024-03-07T07:48:49.399Z,5.44
2024-03-07T07:51:21.497Z,5.48
2024-03-07T07:53:56.490Z,5.54
2024-03-07T07:56:30.800Z,5.52
2024-03-07T07:59:05.708Z,5.50
2024-03-07T08:01:37.443Z,5.54
2024-03-07T08:04:10.983Z,5.62
2024-03-07T08:06:42.747Z,5.70
2024-03-07T08:09:17.779Z,5.77
2024-03-07T08:11:51.535Z,5.81
2024-03-07T08:14:30.022Z,5.86
2024-03-07T08:17:01.770Z,5.93
2024-03-07T08:19:33.848Z,5.92
2024-03-07T08:22:05.634Z,5.97
2024-03-07T08:24:37.496Z,6.04
2024-03-07T08:27:12.508Z,6.21
2024-03-07T08:29:44.657Z,6.21
2024-03-07T08:32:16.803Z,6.24
2024-03-07T08:34:48.866Z,6.36
2024-03-07T08:37:22.476Z,6.55
2024-03-07T08:39:54.920Z,6.62
2024-03-07T08:42:26.685Z,6.56
2024-03-07T08:44:58.598Z,6.54
2024-03-07T08:47:39.104Z,6.65
2024-03-07T08:50:10.961Z,6.86
2024-03-07T08:52:46.385Z,7.01
2024-03-07T08:55:21.252Z,7.04
2024-03-07T08:57:56.085Z,6.97
2024-03-07T09:00:28.672Z,6.83
2024-03-07T09:03:06.788Z,6.93
2024-03-07T09:05:38.927Z,7.03
2024-03-07T09:08:10.710Z,7.06
2024-03-07T09:10:48.772Z,7.11
2024-03-07T09:13:20.544Z,7.22
2024-03-07T09:15:53.733Z,7.28
2024-03-07T09:18:26.715Z,7.34
2024-03-07T09:21:01.621Z,7.41
2024-03-07T09:23:33.467Z,7.34
2024-03-07T09:26:08.448Z,7.15
2024-03-07T09:28:40.952Z,7.16
2024-03-07T09:31:17.489Z,7.14
2024-03-07T09:33:50.111Z,7.21
2024-03-07T09:36:22.617Z,7.19
2024-03-07T09:38:55.035Z,7.04
2024-03-07T09:41:26.970Z,7.05
2024-03-07T09:44:01.501Z,7.07
2024-03-07T09:46:33.548Z,7.13
2024-03-07T09:49:07.947Z,7.14
2024-03-07T09:51:39.965Z,7.08
2024-03-07T09:54:12.159Z,6.98
2024-03-07T09:56:47.757Z,6.90
2024-03-07T09:59:23.539Z,6.86
2024-03-07T10:02:02.973Z,6.85
2024-03-07T10:04:37.647Z,6.83
2024-03-07T10:07:15.100Z,6.62
2024-03-07T10:09:48.706Z,6.51
2024-03-07T10:12:20.622Z,6.46
2024-03-07T10:14:58.695Z,6.48
2024-03-07T10:17:33.252Z,6.53
2024-03-07T10:20:10.784Z,6.60
2024-03-07T10:22:44.805Z,6.50
2024-03-07T10:25:21.774Z,6.60
2024-03-07T10:27:54.182Z,6.66
2024-03-07T10:30:26.661Z,6.65
2024-03-07T10:33:02.005Z,6.65
2024-03-07T10:35:34.961Z,6.62
2024-03-07T10:38:15.117Z,6.69
2024-03-07T10:40:54.948Z,6.80
2024-03-07T10:43:30.624Z,6.78
2024-03-07T10:46:08.019Z,6.74
2024-03-07T10:48:41.786Z,6.82
2024-03-07T10:51:26.337Z,6.95
2024-03-07T10:54:32.400Z,7.06
2024-03-07T10:57:22.351Z,7.11
2024-03-07T11:00:02.823Z,6.98
2024-03-07T11:02:46.155Z,6.96
2024-03-07T11:05:25.431Z,6.81
2024-03-07T11:07:59.089Z,6.77
2024-03-07T11:10:36.258Z,6.77
2024-03-07T11:13:14.187Z,6.78
2024-03-07T11:15:50.204Z,6.72
2024-03-07T11:18:22.325Z,6.79
2024-03-07T11:20:59.102Z,6.79
2024-03-07T11:23:39.881Z,6.97
2024-03-07T11:26:15.010Z,6.96
2024-03-07T11:28:48.686Z,6.97
2024-03-07T11:31:29.102Z,6.97
2024-03-07T11:34:21.005Z,7.00
2024-03-07T11:36:56.780Z,6.97
2024-03-07T11:39:51.164Z,6.89
2024-03-07T11:42:27.987Z,6.81
2024-03-07T11:45:07.175Z,6.88
2024-03-07T11:47:44.238Z,6.86
2024-03-07T11:50:21.016Z,6.90
2024-03-07T11:52:57.735Z,6.93
2024-03-07T11:55:49.146Z,6.98
2024-03-07T11:58:25.706Z,6.96
2024-03-07T12:00:59.723Z,6.88
2024-03-07T12:03:35.475Z,6.89
2024-03-07T12:06:09.483Z,6.86
2024-03-07T12:08:43.178Z,6.80
2024-03-07T12:11:17.272Z,6.70
2024-03-07T12:13:50.026Z,6.73
2024-03-07T12:16:22.490Z,6.66
2024-03-07T12:18:57.331Z,6.64
2024-03-07T12:21:29.347Z,6.55
2024-03-07T12:24:11.709Z,6.50
2024-03-07T12:26:44.052Z,6.51
2024-03-07T12:29:17.009Z,6.46
2024-03-07T12:31:49.818Z,6.56
2024-03-07T12:34:30.983Z,6.43
2024-03-07T12:37:04.633Z,6.49
2024-03-07T12:39:39.820Z,6.58
2024-03-07T12:42:15.836Z,6.61
2024-03-07T12:45:04.368Z,6.71
2024-03-07T12:47:38.594Z,6.68
2024-03-07T12:50:12.437Z,6.71
2024-03-07T12:52:46.966Z,6.72
2024-03-07T12:55:25.211Z,6.67
2024-03-07T12:57:58.149Z,6.72
2024-03-07T13:00:32.847Z,6.76
2024-03-07T13:03:07.377Z,6.74
2024-03-07T13:05:44.383Z,6.74
2024-03-07T13:08:19.414Z,6.69
2024-03-07T13:10:51.622Z,6.71
2024-03-07T13:13:24.147Z,6.70
2024-03-07T13:15:58.936Z,6.77
2024-03-07T13:18:36.277Z,6.83
2024-03-07T13:21:11.947Z,6.80
2024-03-07T13:23:45.746Z,6.79
2024-03-07T13:26:22.228Z,6.67
2024-03-07T13:28:55.480Z,6.62
2024-03-07T13:31:27.534Z,6.62
2024-03-07T13:34:02.948Z,6.68
2024-03-07T13:36:34.981Z,6.80
2024-03-07T13:39:08.963Z,6.82
2024-03-07T13:41:49.424Z,6.76
2024-03-07T13:44:23.468Z,6.73
2024-03-07T13:46:55.829Z,6.63
2024-03-07T13:49:29.220Z,6.68
2024-03-07T13:52:11.948Z,6.70
2024-03-07T13:54:46.003Z,6.69
2024-03-07T13:57:44.619Z,6.74
2024-03-07T14:00:43.574Z,6.67
2024-03-07T14:04:05.033Z,6.71
2024-03-07T14:06:45.858Z,6.69
2024-03-07T14:09:29.664Z,6.66
2024-03-07T14:12:29.669Z,6.71
2024-03-07T14:15:38.959Z,6.71
2024-03-07T14:18:36.971Z,6.72
2024-03-07T14:21:36.189Z,6.70
2024-03-07T14:24:32.836Z,6.73
2024-03-07T14:27:24.146Z,6.76
2024-03-07T14:30:36.365Z,6.76
2024-03-07T14:33:09.324Z,6.81
2024-03-07T14:36:02.065Z,6.85
2024-03-07T14:38:52.878Z,6.90
2024-03-07T14:41:57.677Z,6.91
2024-03-07T14:44:30.081Z,6.89
2024-03-07T14:47:08.525Z,6.86
2024-03-07T14:49:42.979Z,6.78
2024-03-07T14:52:16.125Z,6.73
2024-03-07T14:54:49.006Z,6.71
2024-03-07T14:57:22.975Z,6.75
2024-03-07T14:59:55.858Z,6.82
2024-03-07T15:02:28.165Z,6.83
2024-03-07T15:05:00.329Z,6.72
2024-03-07T15:07:32.417Z,6.71
2024-03-07T15:10:12.569Z,6.73
2024-03-07T15:12:48.136Z,6.78
2024-03-07T15:15:21.072Z,6.71
2024-03-07T15:17:55.194Z,6.77
2024-03-07T15:20:32.483Z,6.77
2024-03-07T15:23:09.423Z,6.74
2024-03-07T15:25:41.386Z,6.71
2024-03-07T15:28:13.629Z,6.71
2024-03-07T15:30:47.276Z,6.71
2024-03-07T15:33:20.231Z,6.73
2024-03-07T15:35:53.454Z,6.75
2024-03-07T15:38:27.067Z,6.75
2024-03-07T15:41:04.969Z,6.76
2024-03-07T15:43:37.181Z,6.83
2024-03-07T15:46:08.974Z,6.87
2024-03-07T15:48:42.368Z,6.81
2024-03-07T15:51:15.720Z,6.84
2024-03-07T15:53:50.439Z,6.88
2024-03-07T15:56:22.364Z,6.81
2024-03-07T15:58:57.267Z,6.84
2024-03-07T16:01:30.215Z,6.74
2024-03-07T16:04:06.694Z,6.71
2024-03-07T16:06:45.225Z,6.66
2024-03-07T16:09:36.641Z,6.61
2024-03-07T16:12:09.229Z,6.56
2024-03-07T16:14:41.047Z,6.56
2024-03-07T16:17:15.295Z,6.55
2024-03-07T16:19:50.333Z,6.51
2024-03-07T16:22:22.558Z,6.55
2024-03-07T16:24:56.311Z,6.67
2024-03-07T16:27:28.061Z,6.49
2024-03-07T16:30:01.054Z,6.43
2024-03-07T16:32:39.310Z,6.43
2024-03-07T16:35:11.239Z,6.37
2024-03-07T16:37:47.353Z,6.33
2024-03-07T16:40:20.938Z,6.34
2024-03-07T16:42:55.222Z,6.35
2024-03-07T16:45:29.528Z,6.32
2024-03-07T16:48:10.603Z,6.30
2024-03-07T16:50:44.423Z,6.22
2024-03-07T16:53:19.659Z,6.18
2024-03-07T16:55:51.346Z,6.15
2024-03-07T16:58:23.522Z,6.12
2024-03-07T17:00:56.754Z,6.13
2024-03-07T17:03:28.566Z,6.11
2024-03-07T17:06:04.065Z,6.15
2024-03-07T17:08:35.881Z,6.18
2024-03-07T17:11:09.078Z,6.12
2024-03-07T17:13:42.974Z,6.09
2024-03-07T17:16:17.601Z,6.05
2024-03-07T17:18:50.389Z,6.09
2024-03-07T17:21:22.247Z,6.13
2024-03-07T17:23:57.079Z,6.06
2024-03-07T17:26:32.208Z,6.07
2024-03-07T17:29:04.462Z,6.01
2024-03-07T17:31:36.807Z,5.95
2024-03-07T17:34:09.007Z,5.96
2024-03-07T17:36:45.302Z,5.96
2024-03-07T17:39:17.252Z,5.94
2024-03-07T17:41:50.929Z,5.91
2024-03-07T17:44:22.840Z,5.91
2024-03-07T17:46:54.784Z,5.92
2024-03-07T17:49:26.525Z,5.88
2024-03-07T17:51:59.007Z,5.92
2024-03-07T17:54:32.696Z,5.89
2024-03-07T17:57:07.015Z,5.89
2024-03-07T17:59:42.487Z,5.87
2024-03-07T18:02:21.926Z,5.84
2024-03-07T18:04:54.024Z,5.84
2024-03-07T18:07:29.928Z,5.85
2024-03-07T18:10:13.887Z,5.89
2024-03-07T18:12:54.270Z,5.85
2024-03-07T18:15:28.976Z,5.81
2024-03-07T18:18:05.322Z,5.78
2024-03-07T18:20:52.323Z,5.77
2024-03-07T18:23:28.103Z,5.80
2024-03-07T18:26:01.917Z,5.78
2024-03-07T18:28:34.692Z,5.71
2024-03-07T18:31:28.691Z,5.72
2024-03-07T18:34:01.191Z,5.73
2024-03-07T18:36:35.907Z,5.74
2024-03-07T18:39:16.802Z,5.67
2024-03-07T18:41:52.844Z,5.61
2024-03-07T18:44:27.819Z,5.57
2024-03-07T18:47:01.876Z,5.51
2024-03-07T18:49:37.196Z,5.42
2024-03-07T18:52:08.986Z,5.41
2024-03-07T18:54:44.399Z,5.26
2024-03-07T18:57:31.504Z,5.22
2024-03-07T19:00:05.736Z,5.14
2024-03-07T19:02:42.290Z,5.12
2024-03-07T19:05:15.560Z,5.04
2024-03-07T19:07:47.310Z,4.93
2024-03-07T19:10:19.329Z,4.89
2024-03-07T19:12:54.923Z,4.87
2024-03-07T19:15:28.570Z,4.78
2024-03-07T19:18:01.191Z,4.77
2024-03-07T19:20:33.331Z,4.69
2024-03-07T19:23:10.176Z,4.65
2024-03-07T19:25:54.990Z,4.74
2024-03-07T19:28:26.977Z,4.62
2024-03-07T19:31:00.218Z,4.63
2024-03-07T19:33:35.475Z,4.66
2024-03-07T19:36:14.604Z,4.59
2024-03-07T19:38:49.763Z,4.48
2024-03-07T19:41:24.089Z,4.42
2024-03-07T19:43:58.920Z,4.43
2024-03-07T19:46:32.722Z,4.37
2024-03-07T19:49:07.657Z,4.29
2024-03-07T19:51:40.072Z,4.31
2024-03-07T19:54:13.592Z,4.31
2024-03-07T19:56:51.592Z,4.31
2024-03-07T19:59:23.567Z,4.30
2024-03-07T20:01:55.773Z,4.28
2024-03-07T20:04:27.473Z,4.27
2024-03-07T20:07:00.407Z,4.28
2024-03-07T20:09:36.714Z,4.28
2024-03-07T20:12:08.751Z,4.26
2024-03-07T20:14:40.646Z,4.18
2024-03-07T20:17:13.060Z,4.17
2024-03-07T20:19:47.939Z,4.16
2024-03-07T20:22:22.761Z,4.11
2024-03-07T20:24:54.432Z,4.09
2024-03-07T20:27:26.170Z,4.04
2024-03-07T20:29:59.123Z,4.01
2024-03-07T20:32:31.177Z,3.99
2024-03-07T20:35:07.259Z,4.01
2024-03-07T20:37:39.837Z,4.04
2024-03-07T20:40:14.643Z,4.00
2024-03-07T20:42:46.409Z,3.99
2024-03-07T20:45:22.967Z,3.99
2024-03-07T20:47:55.640Z,4.02
2024-03-07T20:50:30.129Z,3.99
2024-03-07T20:53:02.429Z,3.95
2024-03-07T20:55:37.188Z,3.87
2024-03-07T20:58:10.326Z,3.85
2024-03-07T21:00:48.434Z,3.82
2024-03-07T21:03:24.695Z,3.88
2024-03-07T21:05:58.693Z,3.80
2024-03-07T21:08:34.134Z,3.83
2024-03-07T21:11:07.591Z,3.72
2024-03-07T21:13:40.298Z,3.72
2024-03-07T21:16:13.021Z,3.75
2024-03-07T21:18:45.100Z,3.72
2024-03-07T21:21:16.816Z,3.77
2024-03-07T21:23:49.154Z,3.69
2024-03-07T21:26:21.050Z,3.61
2024-03-07T21:28:55.163Z,3.65
2024-03-07T21:31:27.806Z,3.64
2024-03-07T21:33:59.585Z,3.62
2024-03-07T21:36:31.390Z,3.62
2024-03-07T21:39:03.234Z,3.62
2024-03-07T21:41:38.201Z,3.61
2024-03-07T21:44:10.279Z,3.57
2024-03-07T21:46:42.624Z,3.55
2024-03-07T21:49:15.438Z,3.57
2024-03-07T21:51:50.556Z,3.59
2024-03-07T21:54:23.033Z,3.61
2024-03-07T21:57:00.700Z,3.53
2024-03-07T21:59:35.261Z,3.50
2024-03-07T22:02:21.080Z,3.46
2024-03-07T22:04:53.673Z,3.50
2024-03-07T22:07:25.873Z,3.41
2024-03-07T22:10:00.423Z,3.34
2024-03-07T22:12:34.978Z,3.36
2024-03-07T22:15:26.283Z,3.35
2024-03-07T22:18:00.210Z,3.38
2024-03-07T22:20:32.521Z,3.39
2024-03-07T22:23:06.031Z,3.37
2024-03-07T22:25:37.907Z,3.35
2024-03-07T22:28:09.649Z,3.40
2024-03-07T22:30:42.426Z,3.40
2024-03-07T22:33:14.216Z,3.39
2024-03-07T22:35:48.760Z,3.29
2024-03-07T22:38:22.751Z,3.27
2024-03-07T22:40:56.109Z,3.32
2024-03-07T22:43:28.213Z,3.38
2024-03-07T22:46:00.047Z,3.44
2024-03-07T22:48:36.438Z,3.47
2024-03-07T22:51:11.725Z,3.49
2024-03-07T22:53:43.391Z,3.40
2024-03-07T22:56:17.094Z,3.28
2024-03-07T22:58:49.010Z,3.26
2024-03-07T23:01:35.145Z,3.29
2024-03-07T23:04:06.987Z,3.27
2024-03-07T23:06:38.733Z,3.17
2024-03-07T23:09:10.669Z,3.15
2024-03-07T23:11:43.930Z,3.13
2024-03-07T23:14:16.742Z,3.17
2024-03-07T23:16:50.099Z,3.11
2024-03-07T23:19:21.855Z,3.13
2024-03-07T23:21:55.205Z,3.13
2024-03-07T23:24:27.365Z,3.14
2024-03-07T23:26:59.147Z,3.13
2024-03-07T23:29:31.338Z,3.15
2024-03-07T23:32:03.715Z,3.13
2024-03-07T23:34:35.638Z,3.09
2024-03-07T23:37:16.465Z,3.11
2024-03-07T23:39:48.568Z,3.15
2024-03-07T23:42:22.086Z,3.17
2024-03-07T23:44:55.672Z,3.17
2024-03-07T23:47:27.655Z,3.19
2024-03-07T23:49:59.825Z,3.18
2024-03-07T23:52:31.582Z,3.23
2024-03-07T23:55:03.498Z,3.29
2024-03-07T23:57:35.296Z,3.32
